createdAt,value
2017-11-25T00:01:24.193Z,12.50
2017-11-25T00:03:52.463Z,12.48
2017-11-25T00:06:20.730Z,12.48
2017-11-25T00:08:49.006Z,12.40
2017-11-25T00:11:17.391Z,12.37
2017-11-25T00:13:45.659Z,12.36
2017-11-25T00:16:13.957Z,12.46
2017-11-25T00:18:42.232Z,12.43
2017-11-25T00:21:10.530Z,12.49
2017-11-25T00:23:38.847Z,12.47
2017-11-25T00:26:07.155Z,12.46
2017-11-25T00:28:35.442Z,12.51
2017-11-25T00:31:04.715Z,12.51
2017-11-25T00:33:33.000Z,12.50
2017-11-25T00:36:01.261Z,12.38
2017-11-25T00:38:29.658Z,12.43
2017-11-25T00:40:57.934Z,12.44
2017-11-25T00:43:26.825Z,12.44
2017-11-25T00:45:55.121Z,12.42
2017-11-25T00:48:23.402Z,12.43
2017-11-25T00:50:51.677Z,12.38
2017-11-25T00:53:19.998Z,12.30
2017-11-25T00:55:48.275Z,12.30
2017-11-25T00:58:16.529Z,12.37
2017-11-25T01:00:44.866Z,12.34
2017-11-25T01:03:13.181Z,12.40
2017-11-25T01:05:42.356Z,12.43
2017-11-25T01:08:10.618Z,12.44
2017-11-25T01:10:38.919Z,12.43
2017-11-25T01:13:07.198Z,12.39
2017-11-25T01:15:35.492Z,12.40
2017-11-25T01:18:03.763Z,12.37
2017-11-25T01:20:32.082Z,12.33
2017-11-25T01:23:00.324Z,12.40
2017-11-25T01:25:28.673Z,12.32
2017-11-25T01:27:56.932Z,12.31
2017-11-25T01:30:25.211Z,12.36
2017-11-25T01:32:53.503Z,12.32
2017-11-25T01:35:21.760Z,12.32
2017-11-25T01:37:50.035Z,12.36
2017-11-25T01:40:18.311Z,12.38
2017-11-25T01:42:46.588Z,12.35
2017-11-25T01:45:14.870Z,12.35
2017-11-25T01:47:43.153Z,12.30
2017-11-25T01:50:11.417Z,12.28
2017-11-25T01:52:39.684Z,12.33
2017-11-25T01:55:07.971Z,12.34
2017-11-25T01:57:36.321Z,12.06
2017-11-25T02:00:05.265Z,11.85
2017-11-25T02:02:33.581Z,11.96
2017-11-25T02:05:01.878Z,12.08
2017-11-25T02:07:30.141Z,12.09
2017-11-25T02:09:58.753Z,12.09
2017-11-25T02:12:26.995Z,12.08
2017-11-25T02:14:55.329Z,12.08
2017-11-25T02:17:23.600Z,12.05
2017-11-25T02:19:51.850Z,12.08
2017-11-25T02:22:20.138Z,12.04
2017-11-25T02:24:48.393Z,11.98
2017-11-25T02:27:16.737Z,11.90
2017-11-25T02:29:45.022Z,11.89
2017-11-25T02:32:13.307Z,11.86
2017-11-25T02:34:41.585Z,11.82
2017-11-25T02:37:09.975Z,11.81
2017-11-25T02:39:39.183Z,11.84
2017-11-25T02:42:07.630Z,11.86
2017-11-25T02:44:35.903Z,11.83
2017-11-25T02:47:04.470Z,11.79
2017-11-25T02:49:32.805Z,11.68
2017-11-25T02:52:01.068Z,11.71
2017-11-25T02:54:29.358Z,11.68
2017-11-25T02:56:57.704Z,11.71
2017-11-25T02:59:26.018Z,11.73
2017-11-25T03:01:54.295Z,11.74
2017-11-25T03:04:22.561Z,11.70
2017-11-25T03:06:50.867Z,11.86
2017-11-25T03:09:19.133Z,11.82
2017-11-25T03:11:47.403Z,11.87
2017-11-25T03:14:15.664Z,11.89
2017-11-25T03:16:43.968Z,11.74
2017-11-25T03:19:12.242Z,11.75
2017-11-25T03:21:40.571Z,11.79
2017-11-25T03:24:08.838Z,11.85
2017-11-25T03:26:37.098Z,11.79
2017-11-25T03:29:05.385Z,11.73
2017-11-25T03:31:33.650Z,11.73
2017-11-25T03:34:01.972Z,11.75
2017-11-25T03:36:30.641Z,11.38
2017-11-25T03:38:58.938Z,11.32
2017-11-25T03:41:27.184Z,11.39
2017-11-25T03:43:55.466Z,11.34
2017-11-25T03:46:23.756Z,11.43
2017-11-25T03:48:52.294Z,11.32
2017-11-25T03:51:20.551Z,11.44
2017-11-25T03:53:48.823Z,11.38
2017-11-25T03:56:17.110Z,11.49
2017-11-25T03:58:45.388Z,11.49
2017-11-25T04:01:13.673Z,11.53
2017-11-25T04:03:41.944Z,11.52
2017-11-25T04:06:10.244Z,11.53
2017-11-25T04:08:38.511Z,11.48
2017-11-25T04:11:06.785Z,11.49
2017-11-25T04:13:35.056Z,11.41
2017-11-25T04:16:03.337Z,11.46
2017-11-25T04:18:31.768Z,11.39
2017-11-25T04:21:00.044Z,11.44
2017-11-25T04:23:28.351Z,11.41
2017-11-25T04:25:56.612Z,11.22
2017-11-25T04:28:25.177Z,11.28
2017-11-25T04:30:53.484Z,11.22
2017-11-25T04:33:21.803Z,11.20
2017-11-25T04:35:50.093Z,11.25
2017-11-25T04:38:18.367Z,11.17
2017-11-25T04:40:46.689Z,11.28
2017-11-25T04:43:14.981Z,11.11
2017-11-25T04:45:43.532Z,11.16
2017-11-25T04:48:11.804Z,11.23
2017-11-25T04:50:40.150Z,11.29
2017-11-25T04:53:08.464Z,11.21
2017-11-25T04:55:36.732Z,11.25
2017-11-25T04:58:05.129Z,11.13
2017-11-25T05:00:33.445Z,11.20
2017-11-25T05:03:01.733Z,11.18
2017-11-25T05:05:30.054Z,11.23
2017-11-25T05:07:58.341Z,11.21
2017-11-25T05:10:26.603Z,11.16
2017-11-25T05:12:54.858Z,11.05
2017-11-25T05:15:23.129Z,11.02
2017-11-25T05:17:51.415Z,11.05
2017-11-25T05:20:19.669Z,11.12
2017-11-25T05:22:47.976Z,11.03
2017-11-25T05:25:16.258Z,11.05
2017-11-25T05:27:44.540Z,11.05
2017-11-25T05:30:12.817Z,11.03
2017-11-25T05:32:41.129Z,10.98
2017-11-25T05:35:09.408Z,11.01
2017-11-25T05:37:37.668Z,11.02
2017-11-25T05:40:05.949Z,10.99
2017-11-25T05:42:34.220Z,10.96
2017-11-25T05:45:02.517Z,10.92
2017-11-25T05:47:30.860Z,10.92
2017-11-25T05:49:59.124Z,10.89
2017-11-25T05:52:27.439Z,10.95
2017-11-25T05:54:55.811Z,10.96
2017-11-25T05:57:24.069Z,11.04
2017-11-25T05:59:52.414Z,11.00
2017-11-25T06:02:20.718Z,11.08
2017-11-25T06:04:48.973Z,11.03
2017-11-25T06:07:17.261Z,11.05
2017-11-25T06:09:45.618Z,10.92
2017-11-25T06:12:13.901Z,10.87
2017-11-25T06:14:42.163Z,10.84
2017-11-25T06:17:10.445Z,10.79
2017-11-25T06:19:39.749Z,10.81
2017-11-25T06:22:08.161Z,10.83
2017-11-25T06:24:36.471Z,10.77
2017-11-25T06:27:05.342Z,10.73
2017-11-25T06:29:33.632Z,10.76
2017-11-25T06:32:01.916Z,10.72
2017-11-25T06:34:30.530Z,10.66
2017-11-25T06:36:58.823Z,10.47
2017-11-25T06:39:27.119Z,10.52
2017-11-25T06:41:55.395Z,10.51
2017-11-25T06:44:23.697Z,10.50
2017-11-25T06:46:51.969Z,10.42
2017-11-25T06:49:20.311Z,10.37
2017-11-25T06:51:48.604Z,10.38
2017-11-25T06:54:16.880Z,10.33
2017-11-25T06:56:45.186Z,10.25
2017-11-25T06:59:13.462Z,10.22
2017-11-25T07:01:42.300Z,10.25
2017-11-25T07:04:10.589Z,10.31
2017-11-25T07:06:38.890Z,10.32
2017-11-25T07:09:07.183Z,10.26
2017-11-25T07:11:35.473Z,10.25
2017-11-25T07:14:03.761Z,10.38
2017-11-25T07:16:32.043Z,10.40
2017-11-25T07:19:00.346Z,10.28
2017-11-25T07:21:28.600Z,10.20
2017-11-25T07:23:56.869Z,10.21
2017-11-25T07:26:25.163Z,10.20
2017-11-25T07:28:53.435Z,10.13
2017-11-25T07:31:21.707Z,10.18
2017-11-25T07:33:49.988Z,10.29
2017-11-25T07:36:18.246Z,10.34
2017-11-25T07:38:46.560Z,10.32
2017-11-25T07:41:14.915Z,10.18
2017-11-25T07:43:43.196Z,10.24
2017-11-25T07:46:11.468Z,10.29
2017-11-25T07:48:39.749Z,10.23
2017-11-25T07:51:08.017Z,10.35
2017-11-25T07:53:36.313Z,10.32
2017-11-25T07:56:05.039Z,10.23
2017-11-25T07:58:33.332Z,10.18
2017-11-25T08:01:01.599Z,10.26
2017-11-25T08:03:29.857Z,10.35
2017-11-25T08:05:58.149Z,10.25
2017-11-25T08:08:26.434Z,9.73
2017-11-25T08:10:54.738Z,10.23
2017-11-25T08:13:22.988Z,10.23
2017-11-25T08:15:51.396Z,10.24
2017-11-25T08:18:19.692Z,10.23
2017-11-25T08:20:47.949Z,9.97
2017-11-25T08:23:16.223Z,10.00
2017-11-25T08:25:44.528Z,9.98
2017-11-25T08:28:12.786Z,9.93
2017-11-25T08:30:41.044Z,9.92
2017-11-25T08:33:09.625Z,9.91
2017-11-25T08:35:37.864Z,9.82
2017-11-25T08:38:06.173Z,9.82
2017-11-25T08:40:34.449Z,9.85
2017-11-25T08:43:02.742Z,9.80
2017-11-25T08:45:31.013Z,9.81
2017-11-25T08:47:59.470Z,9.73
2017-11-25T08:50:27.694Z,9.78
2017-11-25T08:52:56.004Z,9.70
2017-11-25T08:55:24.280Z,9.91
2017-11-25T08:57:52.602Z,9.80
2017-11-25T09:00:20.874Z,9.81
2017-11-25T09:02:49.143Z,9.82
2017-11-25T09:05:17.455Z,9.83
2017-11-25T09:07:46.104Z,9.77
2017-11-25T09:10:14.471Z,9.82
2017-11-25T09:12:42.726Z,9.74
2017-11-25T09:15:11.283Z,9.63
2017-11-25T09:17:39.565Z,9.60
2017-11-25T09:20:07.846Z,9.54
2017-11-25T09:22:36.143Z,9.50
2017-11-25T09:25:04.960Z,9.69
2017-11-25T09:27:33.265Z,9.69
2017-11-25T09:30:01.508Z,9.78
2017-11-25T09:32:29.789Z,9.73
2017-11-25T09:34:58.086Z,9.66
2017-11-25T09:37:26.463Z,9.67
2017-11-25T09:39:54.656Z,9.71
2017-11-25T09:42:23.013Z,9.66
2017-11-25T09:44:51.353Z,9.67
2017-11-25T09:47:20.423Z,9.61
2017-11-25T09:49:48.698Z,9.68
2017-11-25T09:52:16.997Z,9.64
2017-11-25T09:54:45.265Z,9.74
2017-11-25T09:57:13.577Z,9.68
2017-11-25T09:59:41.890Z,9.70
2017-11-25T10:02:10.135Z,9.82
2017-11-25T10:04:38.453Z,9.82
2017-11-25T10:07:06.747Z,9.99
2017-11-25T10:09:35.047Z,10.02
2017-11-25T10:12:03.400Z,9.93
2017-11-25T10:14:31.691Z,10.04
2017-11-25T10:17:00.035Z,10.11
2017-11-25T10:19:29.500Z,10.07
2017-11-25T10:21:57.817Z,10.10
2017-11-25T10:24:26.089Z,9.99
2017-11-25T10:26:54.376Z,9.97
2017-11-25T10:29:22.631Z,9.92
2017-11-25T10:31:50.904Z,10.02
2017-11-25T10:34:19.995Z,9.97
2017-11-25T10:36:48.262Z,10.02
2017-11-25T10:39:16.620Z,10.06
2017-11-25T10:41:44.926Z,10.08
2017-11-25T10:44:13.231Z,10.01
2017-11-25T10:46:41.525Z,10.14
2017-11-25T10:49:09.805Z,10.12
2017-11-25T10:51:38.053Z,10.14
2017-11-25T10:54:06.383Z,10.33
2017-11-25T10:56:34.658Z,10.41
2017-11-25T10:59:03.029Z,10.42
2017-11-25T11:01:31.329Z,10.47
2017-11-25T11:03:59.870Z,10.54
2017-11-25T11:06:28.148Z,10.61
2017-11-25T11:08:56.447Z,10.59
2017-11-25T11:11:24.728Z,10.65
2017-11-25T11:13:53.020Z,10.66
2017-11-25T11:16:21.301Z,10.54
2017-11-25T11:18:49.584Z,9.37
2017-11-25T11:21:17.857Z,9.10
2017-11-25T11:23:46.180Z,9.17
2017-11-25T11:26:14.468Z,9.05
2017-11-25T11:28:42.759Z,9.00
2017-11-25T11:31:11.008Z,8.88
2017-11-25T11:33:39.893Z,8.87
2017-11-25T11:36:08.152Z,8.87
2017-11-25T11:38:40.406Z,8.98
2017-11-25T11:41:08.661Z,8.96
2017-11-25T11:43:37.000Z,8.95
2017-11-25T11:46:05.720Z,8.92
2017-11-25T11:48:34.067Z,8.96
2017-11-25T11:51:02.286Z,9.03
2017-11-25T11:53:30.564Z,9.10
2017-11-25T11:55:58.915Z,9.14
2017-11-25T11:58:27.190Z,9.10
2017-11-25T12:00:55.497Z,9.02
2017-11-25T12:03:23.768Z,9.14
2017-11-25T12:05:52.261Z,9.10
2017-11-25T12:08:20.542Z,9.10
2017-11-25T12:10:48.864Z,9.12
2017-11-25T12:13:17.163Z,9.14
2017-11-25T12:15:45.499Z,9.10
2017-11-25T12:18:13.757Z,8.91
2017-11-25T12:20:42.033Z,8.80
2017-11-25T12:23:10.324Z,8.79
2017-11-25T12:25:38.657Z,8.74
2017-11-25T12:28:06.977Z,8.87
2017-11-25T12:30:36.245Z,8.81
2017-11-25T12:33:04.608Z,8.85
2017-11-25T12:35:32.937Z,8.67
2017-11-25T12:38:01.304Z,8.60
2017-11-25T12:40:29.641Z,8.56
2017-11-25T12:42:58.046Z,8.46
2017-11-25T12:45:26.380Z,8.59
2017-11-25T12:47:54.672Z,8.60
2017-11-25T12:50:22.927Z,8.66
2017-11-25T12:52:51.219Z,8.72
2017-11-25T12:55:19.667Z,8.74
2017-11-25T12:57:47.973Z,8.72
2017-11-25T13:00:16.256Z,8.86
2017-11-25T13:02:44.547Z,8.95
2017-11-25T13:05:12.906Z,8.79
2017-11-25T13:07:41.230Z,8.67
2017-11-25T13:10:09.518Z,8.95
2017-11-25T13:12:37.769Z,9.05
2017-11-25T13:15:06.071Z,9.07
2017-11-25T13:17:34.337Z,9.14
2017-11-25T13:20:02.638Z,9.12
2017-11-25T13:22:30.979Z,9.13
2017-11-25T13:24:59.582Z,9.14
2017-11-25T13:27:27.809Z,9.18
2017-11-25T13:29:56.120Z,9.20
2017-11-25T13:32:24.359Z,9.15
2017-11-25T13:34:52.694Z,9.09
2017-11-25T13:37:21.587Z,8.94
2017-11-25T13:39:49.840Z,8.07
2017-11-25T13:42:18.084Z,7.72
2017-11-25T13:44:46.462Z,7.84
2017-11-25T13:47:14.757Z,7.88
2017-11-25T13:49:43.039Z,7.93
2017-11-25T13:52:11.339Z,7.68
2017-11-25T13:54:39.596Z,7.58
2017-11-25T13:57:07.909Z,7.60
2017-11-25T13:59:36.156Z,7.65
2017-11-25T14:02:04.461Z,7.48
2017-11-25T14:04:32.781Z,7.35
2017-11-25T14:07:01.107Z,7.04
2017-11-25T14:09:29.388Z,7.07
2017-11-25T14:11:57.712Z,7.03
2017-11-25T14:14:25.956Z,6.92
2017-11-25T14:16:54.282Z,6.75
2017-11-25T14:19:22.558Z,6.90
2017-11-25T14:21:50.861Z,7.19
2017-11-25T14:24:19.144Z,7.30
2017-11-25T14:26:47.400Z,7.41
2017-11-25T14:29:15.684Z,7.46
2017-11-25T14:31:43.973Z,7.59
2017-11-25T14:34:12.310Z,7.83
2017-11-25T14:36:40.616Z,7.80
2017-11-25T14:39:08.875Z,7.94
2017-11-25T14:41:37.161Z,7.88
2017-11-25T14:44:05.860Z,8.08
2017-11-25T14:46:34.144Z,8.13
2017-11-25T14:49:02.482Z,8.08
2017-11-25T14:51:30.820Z,7.98
2017-11-25T14:53:59.079Z,7.89
2017-11-25T14:56:27.377Z,8.13
2017-11-25T14:58:56.540Z,8.14
2017-11-25T15:01:24.828Z,8.06
2017-11-25T15:03:53.226Z,8.02
2017-11-25T15:06:21.467Z,8.11
2017-11-25T15:08:49.819Z,8.10
2017-11-25T15:11:18.438Z,8.03
2017-11-25T15:13:46.714Z,8.16
2017-11-25T15:16:14.977Z,8.24
2017-11-25T15:18:43.268Z,8.14
2017-11-25T15:21:12.844Z,8.16
2017-11-25T15:23:41.111Z,8.18
2017-11-25T15:26:09.384Z,8.24
2017-11-25T15:28:37.646Z,8.27
2017-11-25T15:31:05.932Z,8.32
2017-11-25T15:33:34.199Z,8.13
2017-11-25T15:36:02.666Z,7.95
2017-11-25T15:38:31.003Z,7.63
2017-11-25T15:40:59.267Z,7.41
2017-11-25T15:43:27.517Z,7.53
2017-11-25T15:45:55.799Z,7.44
2017-11-25T15:48:24.820Z,7.30
2017-11-25T15:50:53.069Z,7.24
2017-11-25T15:53:21.337Z,7.20
2017-11-25T15:55:50.448Z,7.25
2017-11-25T15:58:18.722Z,7.31
2017-11-25T16:00:47.020Z,7.33
2017-11-25T16:03:15.341Z,7.15
2017-11-25T16:05:43.614Z,6.99
2017-11-25T16:08:12.017Z,6.80
2017-11-25T16:10:40.343Z,6.84
2017-11-25T16:13:16.416Z,6.94
2017-11-25T16:15:45.193Z,6.80
2017-11-25T16:18:13.516Z,6.83
2017-11-25T16:20:41.785Z,6.66
2017-11-25T16:23:10.088Z,6.73
2017-11-25T16:25:38.346Z,6.74
2017-11-25T16:28:06.641Z,6.85
2017-11-25T16:30:34.898Z,6.73
2017-11-25T16:33:04.129Z,6.71
2017-11-25T16:35:33.345Z,6.90
2017-11-25T16:38:01.661Z,6.88
2017-11-25T16:40:29.909Z,6.84
2017-11-25T16:42:58.161Z,7.04
2017-11-25T16:45:26.472Z,7.20
2017-11-25T16:47:54.780Z,7.25
2017-11-25T16:50:23.013Z,7.36
2017-11-25T16:52:51.309Z,7.41
2017-11-25T16:55:19.596Z,7.46
2017-11-25T16:57:47.961Z,7.45
2017-11-25T17:00:16.234Z,7.43
2017-11-25T17:02:44.516Z,7.32
2017-11-25T17:05:13.617Z,7.25
2017-11-25T17:07:41.915Z,7.10
2017-11-25T17:10:10.351Z,7.23
2017-11-25T17:12:38.640Z,7.39
2017-11-25T17:15:06.917Z,7.43
2017-11-25T17:17:35.190Z,7.28
2017-11-25T17:20:03.481Z,7.31
2017-11-25T17:22:31.943Z,7.17
2017-11-25T17:25:00.236Z,7.21
2017-11-25T17:27:28.577Z,7.20
2017-11-25T17:29:59.040Z,7.26
2017-11-25T17:32:27.303Z,7.27
2017-11-25T17:34:55.589Z,7.28
2017-11-25T17:37:23.854Z,7.24
2017-11-25T17:39:52.234Z,7.11
2017-11-25T17:42:20.511Z,7.06
2017-11-25T17:44:48.765Z,7.05
2017-11-25T17:47:17.040Z,7.05
2017-11-25T17:49:45.302Z,7.03
2017-11-25T17:52:13.610Z,6.95
2017-11-25T17:54:42.043Z,6.86
2017-11-25T17:57:10.276Z,6.87
2017-11-25T17:59:38.675Z,6.80
2017-11-25T18:02:06.957Z,6.78
2017-11-25T18:04:35.217Z,6.76
2017-11-25T18:07:03.498Z,6.71
2017-11-25T18:09:31.750Z,6.70
2017-11-25T18:12:00.096Z,6.69
2017-11-25T18:14:28.422Z,6.68
2017-11-25T18:16:56.677Z,6.69
2017-11-25T18:19:24.961Z,6.57
2017-11-25T18:21:53.438Z,6.60
2017-11-25T18:24:21.680Z,6.58
2017-11-25T18:26:50.021Z,6.39
2017-11-25T18:29:18.349Z,6.56
2017-11-25T18:31:46.645Z,6.61
2017-11-25T18:34:14.969Z,6.66
2017-11-25T18:36:43.228Z,6.71
2017-11-25T18:39:11.493Z,6.64
2017-11-25T18:41:39.804Z,6.61
2017-11-25T18:44:08.054Z,6.65
2017-11-25T18:46:36.345Z,6.55
2017-11-25T18:49:05.390Z,6.33
2017-11-25T18:51:33.678Z,6.35
2017-11-25T18:54:01.940Z,6.28
2017-11-25T18:56:30.219Z,6.34
2017-11-25T18:58:58.533Z,6.44
2017-11-25T19:01:26.868Z,6.53
2017-11-25T19:03:55.124Z,6.55
2017-11-25T19:06:23.436Z,6.45
2017-11-25T19:08:51.712Z,6.47
2017-11-25T19:11:19.998Z,6.51
2017-11-25T19:13:48.305Z,6.50
2017-11-25T19:16:16.556Z,6.37
2017-11-25T19:18:44.930Z,6.32
2017-11-25T19:21:13.184Z,6.30
2017-11-25T19:23:41.496Z,6.32
2017-11-25T19:26:09.762Z,6.35
2017-11-25T19:28:38.070Z,6.41
2017-11-25T19:31:06.311Z,6.44
2017-11-25T19:33:34.593Z,6.55
2017-11-25T19:36:02.869Z,6.59
2017-11-25T19:38:31.145Z,6.63
2017-11-25T19:40:59.457Z,6.64
2017-11-25T19:43:27.720Z,6.63
2017-11-25T19:45:56.016Z,6.71
2017-11-25T19:48:24.378Z,6.79
2017-11-25T19:50:52.707Z,6.92
2017-11-25T19:53:20.963Z,6.78
2017-11-25T19:55:49.459Z,6.78
2017-11-25T19:58:17.709Z,6.73
2017-11-25T20:00:46.011Z,6.70
2017-11-25T20:03:14.506Z,6.69
2017-11-25T20:05:42.786Z,6.75
2017-11-25T20:08:11.066Z,6.82
2017-11-25T20:10:39.361Z,6.90
2017-11-25T20:13:07.625Z,6.92
2017-11-25T20:15:35.886Z,6.93
2017-11-25T20:18:04.872Z,6.82
2017-11-25T20:20:33.140Z,6.88
2017-11-25T20:23:01.436Z,6.89
2017-11-25T20:25:29.694Z,6.95
2017-11-25T20:27:57.973Z,7.03
2017-11-25T20:30:26.226Z,7.00
2017-11-25T20:32:54.524Z,6.98
2017-11-25T20:35:22.808Z,7.09
2017-11-25T20:37:51.085Z,6.96
2017-11-25T20:40:19.386Z,6.92
2017-11-25T20:42:48.124Z,6.96
2017-11-25T20:45:16.393Z,7.09
2017-11-25T20:47:44.698Z,7.04
2017-11-25T20:50:13.055Z,7.09
2017-11-25T20:52:41.341Z,7.10
2017-11-25T20:55:09.574Z,7.12
2017-11-25T20:57:37.881Z,7.15
2017-11-25T21:00:06.171Z,7.19
2017-11-25T21:02:34.475Z,7.13
2017-11-25T21:05:02.731Z,7.06
2017-11-25T21:07:31.039Z,6.98
2017-11-25T21:09:59.383Z,6.91
2017-11-25T21:12:27.687Z,6.94
2017-11-25T21:14:55.974Z,6.82
2017-11-25T21:17:24.257Z,6.73
2017-11-25T21:19:52.622Z,6.76
2017-11-25T21:22:20.872Z,6.72
2017-11-25T21:24:49.145Z,6.74
2017-11-25T21:27:17.453Z,6.74
2017-11-25T21:29:45.713Z,6.66
2017-11-25T21:32:14.028Z,6.46
2017-11-25T21:34:42.357Z,6.52
2017-11-25T21:37:10.657Z,6.50
2017-11-25T21:39:38.933Z,6.46
2017-11-25T21:42:07.236Z,6.52
2017-11-25T21:44:35.650Z,6.49
2017-11-25T21:47:04.867Z,6.34
2017-11-25T21:49:33.115Z,6.26
2017-11-25T21:52:01.425Z,6.21
2017-11-25T21:54:29.688Z,6.22
2017-11-25T21:56:57.991Z,6.14
2017-11-25T21:59:26.356Z,6.05
2017-11-25T22:01:54.616Z,5.97
2017-11-25T22:04:22.905Z,6.04
2017-11-25T22:06:51.214Z,6.01
2017-11-25T22:09:19.491Z,6.09
2017-11-25T22:11:47.781Z,5.97
2017-11-25T22:14:16.100Z,5.95
2017-11-25T22:16:44.552Z,6.07
2017-11-25T22:19:12.846Z,6.18
2017-11-25T22:21:41.093Z,6.02
2017-11-25T22:24:10.027Z,6.05
2017-11-25T22:26:38.331Z,6.11
2017-11-25T22:29:06.633Z,6.08
2017-11-25T22:31:35.316Z,6.09
2017-11-25T22:34:03.565Z,6.02
2017-11-25T22:36:31.888Z,6.00
2017-11-25T22:39:00.142Z,6.01
2017-11-25T22:41:28.480Z,5.84
2017-11-25T22:43:56.741Z,5.77
2017-11-25T22:46:25.036Z,5.81
2017-11-25T22:48:53.326Z,5.57
2017-11-25T22:51:21.591Z,5.62
2017-11-25T22:53:49.957Z,5.67
2017-11-25T22:56:18.252Z,5.73
2017-11-25T22:58:46.527Z,5.74
2017-11-25T23:01:14.786Z,5.63
2017-11-25T23:03:43.110Z,5.70
2017-11-25T23:06:11.504Z,5.74
2017-11-25T23:08:39.769Z,5.79
2017-11-25T23:11:08.030Z,5.71
2017-11-25T23:13:36.361Z,5.70
2017-11-25T23:16:05.258Z,5.65
2017-11-25T23:18:33.523Z,5.66
2017-11-25T23:21:02.079Z,5.61
2017-11-25T23:23:30.288Z,5.67
2017-11-25T23:25:58.640Z,5.69
2017-11-25T23:28:26.895Z,5.71
2017-11-25T23:30:55.217Z,5.65
2017-11-25T23:33:23.663Z,5.62
2017-11-25T23:35:51.948Z,5.60
2017-11-25T23:38:20.245Z,5.79
2017-11-25T23:40:48.505Z,5.77
2017-11-25T23:43:16.806Z,5.93
2017-11-25T23:45:45.069Z,5.87
2017-11-25T23:48:13.355Z,5.89
2017-11-25T23:50:42.422Z,5.73
2017-11-25T23:53:10.698Z,5.71
2017-11-25T23:55:39.083Z,5.73
2017-11-25T23:58:07.454Z,5.71
